createdAt,value
2023-05-04T00:00:20.675Z,10.95
2023-05-04T00:02:47.678Z,9.55
2023-05-04T00:05:14.720Z,10.40
2023-05-04T00:07:41.795Z,10.82
2023-05-04T00:10:09.500Z,10.80
2023-05-04T00:12:36.549Z,10.40
2023-05-04T00:15:04.246Z,10.32
2023-05-04T00:17:31.902Z,9.98
2023-05-04T00:19:58.936Z,10.93
2023-05-04T00:22:26.117Z,9.52
2023-05-04T00:24:53.133Z,10.52
2023-05-04T00:27:20.136Z,9.80
2023-05-04T00:29:47.134Z,10.05
2023-05-04T00:32:14.126Z,10.45
2023-05-04T00:34:41.706Z,11.13
2023-05-04T00:37:08.725Z,12.57
2023-05-04T00:39:35.717Z,11.85
2023-05-04T00:42:03.228Z,12.10
2023-05-04T00:44:30.277Z,12.60
2023-05-04T00:46:57.601Z,10.95
2023-05-04T00:49:25.403Z,10.65
2023-05-04T00:51:53.963Z,12.25
2023-05-04T00:54:21.400Z,11.23
2023-05-04T00:56:48.844Z,12.43
2023-05-04T00:59:15.898Z,11.90
2023-05-04T01:01:43.162Z,12.35
2023-05-04T01:04:10.676Z,11.30
2023-05-04T01:06:44.207Z,11.27
2023-05-04T01:09:23.158Z,12.73
2023-05-04T01:11:53.849Z,12.48
2023-05-04T01:14:23.169Z,10.68
2023-05-04T01:16:54.107Z,12.25
2023-05-04T01:19:21.283Z,11.05
2023-05-04T01:21:48.184Z,12.18
2023-05-04T01:24:15.722Z,11.80
2023-05-04T01:26:46.185Z,12.38
2023-05-04T01:29:17.827Z,12.27
2023-05-04T01:31:46.711Z,12.75
2023-05-04T01:34:14.492Z,11.57
2023-05-04T01:36:41.836Z,12.20
2023-05-04T01:39:09.954Z,12.98
2023-05-04T01:41:37.221Z,12.48
2023-05-04T01:44:05.046Z,12.00
2023-05-04T01:46:32.130Z,11.77
2023-05-04T01:49:00.124Z,12.48
2023-05-04T01:51:27.248Z,12.40
2023-05-04T01:53:54.308Z,12.15
2023-05-04T01:56:22.792Z,11.40
2023-05-04T01:58:51.958Z,12.13
2023-05-04T02:01:19.024Z,9.60
2023-05-04T02:03:46.119Z,12.77
2023-05-04T02:06:13.301Z,10.88
2023-05-04T02:08:41.561Z,12.02
2023-05-04T02:11:08.594Z,12.52
2023-05-04T02:13:36.593Z,11.80
2023-05-04T02:16:03.897Z,11.48
2023-05-04T02:18:31.015Z,11.82
2023-05-04T02:20:58.223Z,11.02
2023-05-04T02:23:25.659Z,12.57
2023-05-04T02:25:54.425Z,11.93
2023-05-04T02:28:21.428Z,12.45
2023-05-04T02:30:48.506Z,11.73
2023-05-04T02:33:15.461Z,10.73
2023-05-04T02:35:42.592Z,10.73
2023-05-04T02:38:09.548Z,10.32
2023-05-04T02:40:36.547Z,11.98
2023-05-04T02:43:03.518Z,7.32
2023-05-04T02:45:30.715Z,11.98
2023-05-04T02:47:57.856Z,12.13
2023-05-04T02:50:24.873Z,12.70
2023-05-04T02:52:51.885Z,13.25
2023-05-04T02:55:19.168Z,12.70
2023-05-04T02:57:46.168Z,7.45
2023-05-04T03:00:13.864Z,13.07
2023-05-04T03:02:41.107Z,13.23
2023-05-04T03:05:08.436Z,13.60
2023-05-04T03:07:35.588Z,8.82
2023-05-04T03:10:02.721Z,11.57
2023-05-04T03:12:30.123Z,11.75
2023-05-04T03:14:57.846Z,12.07
2023-05-04T03:17:24.841Z,12.52
2023-05-04T03:19:52.057Z,12.05
2023-05-04T03:22:19.110Z,11.60
2023-05-04T03:24:46.620Z,12.35
2023-05-04T03:27:13.974Z,12.70
2023-05-04T03:29:41.674Z,13.35
2023-05-04T03:32:09.420Z,12.88
2023-05-04T03:34:36.683Z,12.30
2023-05-04T03:37:05.730Z,12.07
2023-05-04T03:39:33.034Z,12.48
2023-05-04T03:42:00.091Z,12.75
2023-05-04T03:44:27.369Z,6.40
2023-05-04T03:46:54.401Z,7.82
2023-05-04T03:49:22.248Z,11.05
2023-05-04T03:51:49.462Z,10.35
2023-05-04T03:54:16.472Z,11.77
2023-05-04T03:56:43.470Z,10.32
2023-05-04T03:59:11.225Z,11.25
2023-05-04T04:01:38.487Z,6.32
2023-05-04T04:04:05.730Z,6.30
2023-05-04T04:06:33.076Z,9.82
2023-05-04T04:09:00.088Z,11.35
2023-05-04T04:11:27.060Z,11.63
2023-05-04T04:13:54.086Z,9.98
2023-05-04T04:16:21.463Z,11.15
2023-05-04T04:18:49.084Z,10.77
2023-05-04T04:21:16.117Z,10.57
2023-05-04T04:23:43.112Z,10.40
2023-05-04T04:26:10.469Z,10.50
2023-05-04T04:28:37.512Z,10.45
2023-05-04T04:31:04.614Z,10.00
2023-05-04T04:33:31.866Z,11.27
2023-05-04T04:35:58.874Z,10.40
2023-05-04T04:38:26.302Z,10.05
2023-05-04T04:40:53.316Z,10.40
2023-05-04T04:43:20.535Z,9.80
2023-05-04T04:45:47.521Z,6.75
2023-05-04T04:48:15.367Z,9.02
2023-05-04T04:50:42.361Z,9.65
2023-05-04T04:53:09.819Z,8.38
2023-05-04T04:55:36.871Z,9.30
2023-05-04T04:58:03.943Z,9.55
2023-05-04T05:00:30.962Z,9.52
2023-05-04T05:02:58.013Z,10.27
2023-05-04T05:05:25.077Z,10.05
2023-05-04T05:07:52.069Z,9.23
2023-05-04T05:10:21.086Z,9.68
2023-05-04T05:12:49.357Z,11.52
2023-05-04T05:15:16.781Z,10.10
2023-05-04T05:17:44.027Z,9.15
2023-05-04T05:20:11.790Z,10.40
2023-05-04T05:22:39.954Z,9.20
2023-05-04T05:25:08.134Z,9.43
2023-05-04T05:27:35.462Z,10.23
2023-05-04T05:30:06.794Z,10.07
2023-05-04T05:32:34.288Z,11.48
2023-05-04T05:35:01.368Z,11.07
2023-05-04T05:37:28.335Z,6.63
2023-05-04T05:39:55.321Z,11.32
2023-05-04T05:42:22.390Z,12.00
2023-05-04T05:44:49.386Z,12.20
2023-05-04T05:47:17.061Z,6.72
2023-05-04T05:49:46.283Z,11.88
2023-05-04T05:52:13.602Z,12.30
2023-05-04T05:54:40.536Z,8.40
2023-05-04T05:57:07.519Z,7.00
2023-05-04T05:59:34.463Z,12.35
2023-05-04T06:02:01.444Z,12.43
2023-05-04T06:04:28.455Z,9.60
2023-05-04T06:06:55.552Z,11.73
2023-05-04T06:09:22.545Z,12.25
2023-05-04T06:11:49.627Z,12.52
2023-05-04T06:14:16.638Z,12.07
2023-05-04T06:16:43.844Z,13.02
2023-05-04T06:19:11.235Z,11.27
2023-05-04T06:21:38.248Z,7.95
2023-05-04T06:24:05.641Z,11.48
2023-05-04T06:26:32.908Z,11.32
2023-05-04T06:28:59.899Z,12.10
2023-05-04T06:31:27.127Z,10.82
2023-05-04T06:33:54.193Z,11.27
2023-05-04T06:36:21.247Z,10.23
2023-05-04T06:38:48.266Z,11.90
2023-05-04T06:41:15.323Z,12.00
2023-05-04T06:43:42.562Z,9.98
2023-05-04T06:46:09.757Z,10.32
2023-05-04T06:48:36.781Z,10.43
2023-05-04T06:51:03.846Z,10.60
2023-05-04T06:53:30.824Z,10.00
2023-05-04T06:55:57.939Z,10.13
2023-05-04T06:58:25.927Z,10.13
2023-05-04T07:00:53.198Z,9.75
2023-05-04T07:03:20.303Z,9.98
2023-05-04T07:05:48.765Z,9.95
2023-05-04T07:08:15.979Z,10.35
2023-05-04T07:10:43.090Z,9.75
2023-05-04T07:13:10.349Z,9.45
2023-05-04T07:15:37.414Z,9.40
2023-05-04T07:18:04.518Z,9.43
2023-05-04T07:20:31.560Z,8.32
2023-05-04T07:22:58.516Z,9.50
2023-05-04T07:25:26.910Z,8.75
2023-05-04T07:27:54.439Z,8.93
2023-05-04T07:30:21.618Z,8.38
2023-05-04T07:32:48.897Z,8.85
2023-05-04T07:35:16.116Z,9.55
2023-05-04T07:37:43.126Z,8.93
2023-05-04T07:40:11.564Z,8.63
2023-05-04T07:42:38.525Z,8.63
2023-05-04T07:45:06.420Z,9.25
2023-05-04T07:47:33.422Z,8.73
2023-05-04T07:50:00.714Z,9.05
2023-05-04T07:52:27.701Z,8.38
2023-05-04T07:54:54.833Z,8.20
2023-05-04T07:57:22.125Z,7.38
2023-05-04T07:59:49.207Z,7.25
2023-05-04T08:02:16.774Z,6.70
2023-05-04T08:04:43.887Z,7.22
2023-05-04T08:07:10.914Z,6.85
2023-05-04T08:09:37.968Z,7.80
2023-05-04T08:12:05.216Z,7.05
2023-05-04T08:14:33.545Z,6.90
2023-05-04T08:17:00.781Z,6.68
2023-05-04T08:19:27.847Z,7.07
2023-05-04T08:21:56.073Z,6.45
2023-05-04T08:24:23.207Z,6.85
2023-05-04T08:27:03.712Z,6.72
2023-05-04T08:29:36.321Z,6.72
2023-05-04T08:32:03.535Z,6.88
2023-05-04T08:34:30.859Z,6.35
2023-05-04T08:36:58.554Z,6.95
2023-05-04T08:39:25.692Z,6.90
2023-05-04T08:41:52.668Z,6.60
2023-05-04T08:44:19.665Z,5.57
2023-05-04T08:46:53.904Z,5.63
2023-05-04T08:49:21.559Z,5.72
2023-05-04T08:51:53.254Z,5.43
2023-05-04T08:54:22.352Z,5.05
2023-05-04T08:56:52.582Z,4.90
2023-05-04T08:59:21.404Z,5.07
2023-05-04T09:01:56.637Z,5.00
2023-05-04T09:04:24.107Z,4.50
2023-05-04T09:06:51.889Z,3.75
2023-05-04T09:09:18.972Z,4.45
2023-05-04T09:11:46.779Z,4.43
2023-05-04T09:14:14.237Z,4.03
2023-05-04T09:16:41.770Z,3.90
2023-05-04T09:19:19.127Z,3.70
2023-05-04T09:21:47.244Z,4.60
2023-05-04T09:24:14.396Z,3.90
2023-05-04T09:26:41.509Z,4.03
2023-05-04T09:29:13.631Z,3.80
2023-05-04T09:31:51.671Z,4.05
2023-05-04T09:34:21.267Z,4.38
2023-05-04T09:37:02.112Z,3.72
2023-05-04T09:39:30.422Z,3.75
2023-05-04T09:41:57.420Z,4.05
2023-05-04T09:44:26.402Z,3.80
2023-05-04T09:46:56.678Z,3.90
2023-05-04T09:49:37.114Z,3.88
2023-05-04T09:52:07.072Z,3.50
2023-05-04T09:54:36.285Z,4.20
2023-05-04T09:57:11.920Z,3.42
2023-05-04T09:59:39.715Z,3.78
2023-05-04T10:02:18.798Z,3.83
2023-05-04T10:04:51.813Z,3.80
2023-05-04T10:07:19.523Z,3.78
2023-05-04T10:09:48.703Z,4.68
2023-05-04T10:12:15.805Z,3.45
2023-05-04T10:14:46.890Z,3.08
2023-05-04T10:17:55.313Z,3.50
2023-05-04T10:20:55.854Z,3.35
2023-05-04T10:23:49.967Z,3.30
2023-05-04T10:26:50.945Z,3.50
2023-05-04T10:29:26.155Z,3.47
2023-05-04T10:31:53.512Z,3.40
2023-05-04T10:34:26.499Z,3.10
2023-05-04T10:36:53.691Z,3.23
2023-05-04T10:39:26.545Z,3.10
2023-05-04T10:41:59.212Z,3.03
2023-05-04T10:44:28.101Z,3.40
2023-05-04T10:47:00.098Z,3.40
2023-05-04T10:49:27.407Z,2.90
2023-05-04T10:52:10.377Z,2.67
2023-05-04T10:54:39.088Z,3.13
2023-05-04T10:57:08.510Z,3.20
2023-05-04T10:59:36.821Z,3.08
2023-05-04T11:02:05.711Z,2.50
2023-05-04T11:04:33.528Z,2.60
2023-05-04T11:07:06.296Z,2.92
2023-05-04T11:09:38.255Z,2.55
2023-05-04T11:12:06.599Z,2.50
2023-05-04T11:14:37.860Z,2.63
2023-05-04T11:17:26.159Z,2.35
2023-05-04T11:19:54.549Z,2.13
2023-05-04T11:22:22.002Z,2.42
2023-05-04T11:24:49.310Z,2.53
2023-05-04T11:27:26.125Z,2.47
2023-05-04T11:29:57.043Z,2.30
2023-05-04T11:32:37.597Z,2.30
2023-05-04T11:35:08.580Z,2.75
2023-05-04T11:37:42.981Z,2.55
2023-05-04T11:40:11.387Z,2.47
2023-05-04T11:42:42.866Z,2.47
2023-05-04T11:45:31.132Z,2.70
2023-05-04T11:47:59.429Z,2.45
2023-05-04T11:50:28.191Z,2.90
2023-05-04T11:53:09.426Z,2.70
2023-05-04T11:55:39.946Z,2.47
2023-05-04T11:58:12.009Z,2.22
2023-05-04T12:00:41.730Z,2.78
2023-05-04T12:03:09.562Z,2.63
2023-05-04T12:05:37.510Z,2.80
2023-05-04T12:08:05.055Z,2.80
2023-05-04T12:10:35.270Z,2.97
2023-05-04T12:13:02.902Z,3.03
2023-05-04T12:15:35.649Z,2.92
2023-05-04T12:18:03.585Z,2.97
2023-05-04T12:20:30.988Z,3.25
2023-05-04T12:22:58.621Z,2.80
2023-05-04T12:25:25.720Z,2.75
2023-05-04T12:27:53.848Z,3.00
2023-05-04T12:30:20.872Z,2.70
2023-05-04T12:32:48.008Z,2.60
2023-05-04T12:35:15.084Z,2.72
2023-05-04T12:37:42.218Z,2.92
2023-05-04T12:42:42.286Z,3.35
2023-05-04T12:45:10.291Z,2.97
2023-05-04T12:47:37.331Z,3.00
2023-05-04T12:50:05.318Z,2.65
2023-05-04T12:52:32.309Z,2.75
2023-05-04T12:54:59.206Z,2.65
2023-05-04T12:57:26.291Z,3.10
2023-05-04T12:59:53.229Z,2.75
2023-05-04T13:02:20.222Z,3.03
2023-05-04T13:04:47.235Z,2.63
2023-05-04T13:07:14.904Z,2.58
2023-05-04T13:09:41.825Z,3.13
2023-05-04T13:12:09.065Z,2.65
2023-05-04T13:14:39.268Z,2.60
2023-05-04T13:17:06.903Z,2.80
2023-05-04T13:19:33.874Z,2.80
2023-05-04T13:22:00.950Z,2.70
2023-05-04T13:24:29.664Z,2.45
2023-05-04T13:26:56.686Z,2.60
2023-05-04T13:29:24.007Z,2.90
2023-05-04T13:31:51.061Z,3.15
2023-05-04T13:34:18.136Z,3.13
2023-05-04T13:36:45.185Z,2.95
2023-05-04T13:39:12.118Z,2.90
2023-05-04T13:41:39.098Z,2.97
2023-05-04T13:44:06.064Z,2.60
2023-05-04T13:46:35.434Z,2.90
2023-05-04T13:49:02.991Z,3.17
2023-05-04T13:51:30.033Z,3.08
2023-05-04T13:53:57.003Z,3.15
2023-05-04T13:56:24.111Z,2.95
2023-05-04T13:58:52.945Z,2.75
2023-05-04T14:01:20.369Z,2.70
2023-05-04T14:03:47.309Z,2.90
2023-05-04T14:06:14.780Z,2.78
2023-05-04T14:08:41.991Z,3.22
2023-05-04T14:11:08.998Z,3.30
2023-05-04T14:13:35.984Z,2.97
2023-05-04T14:16:03.726Z,2.90
2023-05-04T14:18:32.330Z,3.00
2023-05-04T14:20:59.502Z,3.30
2023-05-04T14:23:27.413Z,3.25
2023-05-04T14:25:57.064Z,3.00
2023-05-04T14:28:24.235Z,3.28
2023-05-04T14:30:51.484Z,3.85
2023-05-04T14:33:18.534Z,3.05
2023-05-04T14:35:48.118Z,3.10
2023-05-04T14:38:15.967Z,3.13
2023-05-04T14:40:42.941Z,3.10
2023-05-04T14:43:10.015Z,2.97
2023-05-04T14:45:36.949Z,3.35
2023-05-04T14:48:04.244Z,2.95
2023-05-04T14:50:31.256Z,2.80
2023-05-04T14:52:58.266Z,3.15
2023-05-04T14:55:25.476Z,3.10
2023-05-04T14:57:52.492Z,3.05
2023-05-04T15:00:19.989Z,3.10
2023-05-04T15:02:47.106Z,2.63
2023-05-04T15:05:14.129Z,3.00
2023-05-04T15:07:41.167Z,3.10
2023-05-04T15:10:09.584Z,3.17
2023-05-04T15:12:37.951Z,3.10
2023-05-04T15:15:05.484Z,3.20
2023-05-04T15:17:33.001Z,3.13
2023-05-04T15:20:02.266Z,3.15
2023-05-04T15:22:29.288Z,2.80
2023-05-04T15:24:56.740Z,3.28
2023-05-04T15:27:23.866Z,2.90
2023-05-04T15:29:50.884Z,3.22
2023-05-04T15:32:17.877Z,3.00
2023-05-04T15:34:50.805Z,2.80
2023-05-04T15:37:21.126Z,3.10
2023-05-04T15:39:48.116Z,3.38
2023-05-04T15:42:15.107Z,3.53
2023-05-04T15:44:42.345Z,3.40
2023-05-04T15:47:11.211Z,3.13
2023-05-04T15:49:39.248Z,3.30
2023-05-04T15:52:06.357Z,3.40
2023-05-04T15:54:33.636Z,3.40
2023-05-04T15:57:01.998Z,3.53
2023-05-04T15:59:29.177Z,3.40
2023-05-04T16:01:56.227Z,3.22
2023-05-04T16:04:23.204Z,3.40
2023-05-04T16:06:50.780Z,3.40
2023-05-04T16:09:20.164Z,3.33
2023-05-04T16:11:47.210Z,3.13
2023-05-04T16:14:14.396Z,3.50
2023-05-04T16:16:41.562Z,3.70
2023-05-04T16:19:10.869Z,3.45
2023-05-04T16:21:38.801Z,3.38
2023-05-04T16:24:07.752Z,3.42
2023-05-04T16:26:34.868Z,3.55
2023-05-04T16:29:01.862Z,3.47
2023-05-04T16:31:29.027Z,3.47
2023-05-04T16:33:56.699Z,3.47
2023-05-04T16:36:23.866Z,3.50
2023-05-04T16:38:50.907Z,3.55
2023-05-04T16:41:18.853Z,3.10
2023-05-04T16:43:45.968Z,2.88
2023-05-04T16:46:13.017Z,3.22
2023-05-04T16:48:40.176Z,2.97
2023-05-04T16:51:08.317Z,2.78
2023-05-04T16:53:35.773Z,3.03
2023-05-04T16:56:02.838Z,3.08
2023-05-04T16:58:29.855Z,2.92
2023-05-04T17:00:58.264Z,2.58
2023-05-04T17:03:25.318Z,2.53
2023-05-04T17:05:52.626Z,2.58
2023-05-04T17:08:19.664Z,2.78
2023-05-04T17:10:46.668Z,2.50
2023-05-04T17:13:13.685Z,2.40
2023-05-04T17:15:40.951Z,2.58
2023-05-04T17:18:08.180Z,2.53
2023-05-04T17:20:35.257Z,2.42
2023-05-04T17:23:02.455Z,2.40
2023-05-04T17:25:29.574Z,2.97
2023-05-04T17:27:56.588Z,2.70
2023-05-04T17:30:23.902Z,2.40
2023-05-04T17:32:51.206Z,2.47
2023-05-04T17:35:25.056Z,2.42
2023-05-04T17:37:58.701Z,2.92
2023-05-04T17:40:27.737Z,2.60
2023-05-04T17:42:55.472Z,2.55
2023-05-04T17:45:22.521Z,2.58
2023-05-04T17:47:51.241Z,2.80
2023-05-04T17:50:18.434Z,2.65
2023-05-04T17:52:45.505Z,2.28
2023-05-04T17:55:12.445Z,2.80
2023-05-04T17:57:39.464Z,2.53
2023-05-04T18:00:07.732Z,2.75
2023-05-04T18:02:35.178Z,2.70
2023-05-04T18:05:02.586Z,2.78
2023-05-04T18:07:29.663Z,2.85
2023-05-04T18:09:56.604Z,2.90
2023-05-04T18:12:23.772Z,2.70
2023-05-04T18:14:51.436Z,2.58
2023-05-04T18:17:18.449Z,2.92
2023-05-04T18:19:45.542Z,3.13
2023-05-04T18:22:12.590Z,3.00
2023-05-04T18:24:39.519Z,2.80
2023-05-04T18:27:06.519Z,2.83
2023-05-04T18:29:33.500Z,2.92
2023-05-04T18:32:01.228Z,2.90
2023-05-04T18:34:28.324Z,3.10
2023-05-04T18:36:55.369Z,3.03
2023-05-04T18:39:22.350Z,3.03
2023-05-04T18:41:49.368Z,3.53
2023-05-04T18:44:16.817Z,3.53
2023-05-04T18:46:44.044Z,3.00
2023-05-04T18:49:11.087Z,3.03
2023-05-04T18:51:41.713Z,3.28
2023-05-04T18:54:09.062Z,3.17
2023-05-04T18:56:36.080Z,3.60
2023-05-04T18:59:06.064Z,3.45
2023-05-04T19:01:33.221Z,3.30
2023-05-04T19:04:00.229Z,3.45
2023-05-04T19:06:27.255Z,3.17
2023-05-04T19:08:54.338Z,3.40
2023-05-04T19:11:21.690Z,3.67
2023-05-04T19:13:49.856Z,3.65
2023-05-04T19:16:17.355Z,3.10
2023-05-04T19:18:45.738Z,3.40
2023-05-04T19:21:12.972Z,3.22
2023-05-04T19:23:40.034Z,3.63
2023-05-04T19:26:07.115Z,3.55
2023-05-04T19:28:34.108Z,3.42
2023-05-04T19:31:01.095Z,3.92
2023-05-04T19:33:40.326Z,3.95
2023-05-04T19:36:12.364Z,3.17
2023-05-04T19:38:39.355Z,3.58
2023-05-04T19:41:06.437Z,3.67
2023-05-04T19:43:33.664Z,3.90
2023-05-04T19:46:02.467Z,3.85
2023-05-04T19:48:29.603Z,4.18
2023-05-04T19:50:56.764Z,3.15
2023-05-04T19:53:23.744Z,3.25
2023-05-04T19:55:51.131Z,3.20
2023-05-04T19:58:19.305Z,3.10
2023-05-04T20:00:46.655Z,3.00
2023-05-04T20:03:13.715Z,2.67
2023-05-04T20:05:40.958Z,2.78
2023-05-04T20:08:08.444Z,3.53
2023-05-04T20:10:35.500Z,3.50
2023-05-04T20:13:02.930Z,3.22
2023-05-04T20:15:29.921Z,2.90
2023-05-04T20:17:57.002Z,2.83
2023-05-04T20:20:24.071Z,2.92
2023-05-04T20:22:52.385Z,2.45
2023-05-04T20:25:20.000Z,2.20
2023-05-04T20:27:48.847Z,2.58
2023-05-04T20:30:16.018Z,2.10
2023-05-04T20:32:44.165Z,2.15
2023-05-04T20:35:11.461Z,1.90
2023-05-04T20:37:38.498Z,2.05
2023-05-04T20:40:06.644Z,2.20
2023-05-04T20:42:33.808Z,2.05
2023-05-04T20:45:00.922Z,2.00
2023-05-04T20:47:29.658Z,1.90
2023-05-04T20:49:57.406Z,1.83
2023-05-04T20:52:25.758Z,2.25
2023-05-04T20:54:53.083Z,1.80
2023-05-04T20:57:21.167Z,2.08
2023-05-04T20:59:48.240Z,2.40
2023-05-04T21:02:15.196Z,2.00
2023-05-04T21:04:43.417Z,2.30
2023-05-04T21:07:10.332Z,2.70
2023-05-04T21:09:37.349Z,2.47
2023-05-04T21:12:05.118Z,2.92
2023-05-04T21:14:32.391Z,2.63
2023-05-04T21:16:59.340Z,2.55
2023-05-04T21:19:26.647Z,2.92
2023-05-04T21:21:57.473Z,2.72
2023-05-04T21:24:25.094Z,2.47
2023-05-04T21:26:52.568Z,2.75
2023-05-04T21:29:19.564Z,2.80
2023-05-04T21:31:46.901Z,2.40
2023-05-04T21:34:14.043Z,2.50
2023-05-04T21:36:41.691Z,2.50
2023-05-04T21:39:09.335Z,2.47
2023-05-04T21:41:36.396Z,2.50
2023-05-04T21:44:03.555Z,2.70
2023-05-04T21:46:30.586Z,2.50
2023-05-04T21:48:57.601Z,2.55
2023-05-04T21:51:24.506Z,2.53
2023-05-04T21:53:51.487Z,2.63
2023-05-04T21:56:18.440Z,3.20
2023-05-04T21:58:45.453Z,2.95
2023-05-04T22:01:17.188Z,3.10
2023-05-04T22:03:44.889Z,2.90
2023-05-04T22:06:12.315Z,3.00
2023-05-04T22:08:39.622Z,2.63
2023-05-04T22:11:06.661Z,2.88
2023-05-04T22:13:33.648Z,2.90
2023-05-04T22:16:00.623Z,2.80
2023-05-04T22:18:27.687Z,3.22
2023-05-04T22:20:54.641Z,2.92
2023-05-04T22:23:21.685Z,3.50
2023-05-04T22:25:48.666Z,3.42
2023-05-04T22:28:16.162Z,2.90
2023-05-04T22:30:43.163Z,2.72
2023-05-04T22:33:10.264Z,3.20
2023-05-04T22:35:37.277Z,3.30
2023-05-04T22:38:05.171Z,3.05
2023-05-04T22:40:32.208Z,3.10
2023-05-04T22:42:59.278Z,3.75
2023-05-04T22:45:26.275Z,3.75
2023-05-04T22:47:53.362Z,3.47
2023-05-04T22:50:20.473Z,3.40
2023-05-04T22:52:47.552Z,3.40
2023-05-04T22:55:14.565Z,3.70
2023-05-04T22:57:41.747Z,3.75
2023-05-04T23:00:09.733Z,4.20
2023-05-04T23:02:37.064Z,3.83
2023-05-04T23:05:04.441Z,4.15
2023-05-04T23:07:31.751Z,3.70
2023-05-04T23:09:59.714Z,4.28
2023-05-04T23:12:27.991Z,4.50
2023-05-04T23:14:54.932Z,3.88
2023-05-04T23:17:22.248Z,4.00
2023-05-04T23:19:49.461Z,4.05
2023-05-04T23:22:16.780Z,4.05
2023-05-04T23:24:43.739Z,3.63
2023-05-04T23:27:11.536Z,3.75
2023-05-04T23:29:38.816Z,3.97
2023-05-04T23:32:06.459Z,4.03
2023-05-04T23:34:33.663Z,3.72
2023-05-04T23:37:01.120Z,3.53
2023-05-04T23:39:28.085Z,3.83
2023-05-04T23:41:55.036Z,3.80
2023-05-04T23:44:22.223Z,4.03
2023-05-04T23:46:49.223Z,3.83
2023-05-04T23:49:16.617Z,3.67
2023-05-04T23:51:43.827Z,4.22
2023-05-04T23:54:10.972Z,3.72
2023-05-04T23:56:38.243Z,3.45
2023-05-04T23:59:05.564Z,3.65
